Alamo, Georgia
Current Conditions -  °F | °C
As of 8:55 AM on Monday 24 Nov 2014 (Local Time) from KAZE Reporting Station
Light Rain Light Rain  
Wind Chill: 73°   Ceiling: 1000
Heat Index: 73°   Visibility: 7mi
Dew Point: 73°   Wind: 9mph
Humidity: 100%   Direction: 180°S
Pressure: 29.84"   Gusts: NA
Location:  32.15°N, 82.78°W
Report Text: KAZE 241355Z AUTO 18008KT 160V230 7SM -RA OVC010 23/23 A2984 RMK AO2 T02300230
Loading
Personal Weather Stations






























Interactive Weather Map New forecast layout! Learn more

10-Day Weather Forecast

Advertisements
Track Severe Weather on mobile